»·PEaware :: VRD5150 KTUS-KELP

VRD5150 :: KTUS-KELP

FLIGHT INFORMATION

Flight Status: Arrived
Operator:
Virgin America
More flights by this operator :: More flights under this callsign
Pilot: Anonymous 17686 (17686)
Aircraft: AIRBUS A320
(A320)
More flights by this aircraft type
Origin: KTUS Tucson Intl
United States
Destination: KELP El Paso Intl
United States
More flights between these airports :: More routes between these airports
Route: WLDKT3 SSO TEEES MOLLY4
File this flight plan on PilotEdge
Remarks:
Altitude:
(Current/Filed)
33,000ft
Speed:
(Current/Filed)
450kts
Departed: 10-Jan-18 05:54 PM
Arrived: 10-Jan-18 06:42 PM
Distance/Time
Traveled:
232nm/0:47
Distance/Time
To Go:
Arrived

Flight Plot

Page will automatically refresh every two minutes.

Flight plan parsing failed; only flown route is shown


Map Options




Map Legend


Flown Route
Filed Route
Departure Airport
Arrival Airport
Navaid (VOR, NDB)
Fix

Horizontal Profiles

Position Reports

Time Latitude Longitude Heading Altitude Ground
Speed
10-Jan-18 17:14 32.124194 -110.944455 314 2657ft 0kts
10-Jan-18 17:15 32.124194 -110.944455 314 2657ft 0kts
10-Jan-18 17:16 32.124194 -110.944455 314 2657ft 0kts
10-Jan-18 17:17 32.124194 -110.944455 314 2657ft 0kts
10-Jan-18 17:18 32.124194 -110.944455 314 2657ft 0kts
10-Jan-18 17:19 32.124194 -110.944455 314 2657ft 0kts
10-Jan-18 17:20 32.124194 -110.944455 314 2657ft 0kts
10-Jan-18 17:21 32.124194 -110.944455 314 2657ft 0kts
10-Jan-18 17:22 32.124194 -110.944455 314 2657ft 0kts
10-Jan-18 17:23 32.124194 -110.944455 314 2657ft 0kts
10-Jan-18 17:24 32.124194 -110.944455 314 2657ft 0kts
10-Jan-18 17:25 32.124194 -110.944455 314 2657ft 0kts
10-Jan-18 17:26 32.124194 -110.944455 314 2657ft 0kts
10-Jan-18 17:27 32.124194 -110.944455 314 2657ft 0kts
10-Jan-18 17:28 32.124194 -110.944455 314 2657ft 0kts
10-Jan-18 17:29 32.124194 -110.944455 314 2657ft 0kts
10-Jan-18 17:30 32.124194 -110.944455 314 2657ft 0kts
10-Jan-18 17:31 32.124194 -110.944455 315 2657ft 0kts
10-Jan-18 17:32 32.124194 -110.944455 315 2657ft 0kts
10-Jan-18 17:33 32.124194 -110.944455 314 2657ft 0kts
10-Jan-18 17:34 32.124194 -110.944455 314 2657ft 0kts
10-Jan-18 17:35 32.124194 -110.944455 314 2657ft 0kts
10-Jan-18 17:36 32.124194 -110.944455 314 2657ft 0kts
10-Jan-18 17:37 32.124194 -110.944455 314 2657ft 0kts
10-Jan-18 17:38 32.124194 -110.944455 314 2657ft 0kts
10-Jan-18 17:39 32.124194 -110.944455 314 2657ft 0kts
10-Jan-18 17:40 32.124194 -110.944455 314 2657ft 0kts
10-Jan-18 17:41 32.124191 -110.944452 314 2657ft 0kts
10-Jan-18 17:42 32.123759 -110.943945 314 2657ft 2kts
10-Jan-18 17:43 32.123556 -110.943706 315 2657ft 0kts
10-Jan-18 17:44 32.123557 -110.943707 314 2657ft 0kts
10-Jan-18 17:45 32.123021 -110.944756 228 2657ft 0kts
10-Jan-18 17:46 32.122954 -110.944846 228 2657ft 4kts
10-Jan-18 17:47 32.121506 -110.944115 134 2657ft 10kts
10-Jan-18 17:48 32.118952 -110.941093 134 2657ft 14kts
10-Jan-18 17:49 32.114808 -110.936196 133 2657ft 25kts
10-Jan-18 17:50 32.110270 -110.930837 134 2657ft 21kts
10-Jan-18 17:51 32.106380 -110.926276 132 2657ft 11kts
10-Jan-18 17:52 32.103567 -110.922959 136 2657ft 3kts
10-Jan-18 17:53 32.103466 -110.922848 136 2657ft 1kts
10-Jan-18 17:54 32.103394 -110.922768 136 2657ft 0kts
10-Jan-18 17:55 32.103393 -110.922767 136 2657ft 0kts
10-Jan-18 17:56 32.103268 -110.922629 136 2657ft 6kts
10-Jan-18 17:57 32.102713 -110.922421 213 2657ft 0kts
10-Jan-18 17:58 32.102289 -110.923187 274 2657ft 9kts
10-Jan-18 17:59 32.102406 -110.923333 315 2657ft 0kts
10-Jan-18 18:00 32.107604 -110.929467 315 2657ft 133kts
10-Jan-18 18:01 32.143515 -110.971571 314 5662ft 191kts
10-Jan-18 18:02 32.186671 -111.020939 312 7804ft 253kts
10-Jan-18 18:03 32.255728 -111.037265 28 10874ft 307kts
10-Jan-18 18:04 32.307249 -110.944669 79 12802ft 397kts
10-Jan-18 18:05 32.314574 -110.811276 79 15438ft 415kts
10-Jan-18 18:06 32.324793 -110.672393 79 16982ft 431kts
10-Jan-18 18:07 32.328937 -110.529904 87 17879ft 443kts
10-Jan-18 18:08 32.322164 -110.382194 87 20069ft 455kts
10-Jan-18 18:09 32.315855 -110.234889 86 21953ft 467kts
10-Jan-18 18:10 32.308895 -110.079949 85 23720ft 478kts
10-Jan-18 18:11 32.301509 -109.921047 85 25324ft 488kts
10-Jan-18 18:12 32.293873 -109.758997 85 26776ft 498kts
10-Jan-18 18:13 32.285866 -109.594326 85 28113ft 506kts
10-Jan-18 18:14 32.277432 -109.426613 85 29419ft 512kts
10-Jan-18 18:15 32.269236 -109.259850 82 30908ft 508kts
10-Jan-18 18:16 32.269952 -109.093528 80 32217ft 508kts
10-Jan-18 18:17 32.270328 -108.926057 81 33031ft 509kts
10-Jan-18 18:18 32.270737 -108.759083 82 33024ft 509kts
10-Jan-18 18:19 32.270814 -108.591478 82 33014ft 509kts
10-Jan-18 18:20 32.270772 -108.424376 82 33046ft 509kts
10-Jan-18 18:21 32.269870 -108.257192 87 33024ft 513kts
10-Jan-18 18:22 32.250966 -108.089483 92 32102ft 510kts
10-Jan-18 18:23 32.233139 -107.932422 91 31464ft 465kts
10-Jan-18 18:24 32.216267 -107.787665 92 30295ft 446kts
10-Jan-18 18:25 32.199753 -107.644325 92 28056ft 435kts
10-Jan-18 18:26 32.183450 -107.504952 92 25883ft 423kts
10-Jan-18 18:27 32.167433 -107.369103 93 23725ft 411kts
10-Jan-18 18:28 32.151745 -107.237258 93 21671ft 401kts
10-Jan-18 18:29 32.136272 -107.108414 94 19726ft 391kts
10-Jan-18 18:30 32.120952 -106.983177 97 17886ft 382kts
10-Jan-18 18:31 32.095097 -106.862475 103 16178ft 374kts
10-Jan-18 18:32 32.068425 -106.745855 104 14598ft 364kts
10-Jan-18 18:33 32.040366 -106.633180 105 13042ft 353kts
10-Jan-18 18:34 32.013101 -106.524320 105 11805ft 331kts
10-Jan-18 18:35 31.987959 -106.421277 105 10230ft 324kts
10-Jan-18 18:36 31.964802 -106.317973 105 9011ft 327kts
10-Jan-18 18:37 31.942475 -106.214252 105 9013ft 326kts
10-Jan-18 18:38 31.918331 -106.113563 124 7976ft 315kts
10-Jan-18 18:39 31.852363 -106.060991 159 7797ft 272kts
10-Jan-18 18:40 31.791057 -106.057776 234 7207ft 186kts
10-Jan-18 18:41 31.775615 -106.110207 268 6990ft 170kts
10-Jan-18 18:42 31.784906 -106.164577 280 6474ft 168kts
10-Jan-18 18:43 31.791875 -106.214337 277 5523ft 146kts
10-Jan-18 18:44 31.795289 -106.257654 274 5161ft 129kts
10-Jan-18 18:45 31.797607 -106.297758 275 5159ft 109kts
10-Jan-18 18:46 31.799471 -106.332312 273 4584ft 119kts
10-Jan-18 18:47 31.801014 -106.367610 273 3973ft 88kts
10-Jan-18 18:48 31.800729 -106.377769 180 3972ft 8kts
10-Jan-18 18:49 31.800241 -106.377801 185 3972ft 0kts
10-Jan-18 18:50 31.799818 -106.379687 272 3972ft 9kts
10-Jan-18 18:51 31.799963 -106.383324 273 3972ft 13kts
10-Jan-18 18:52 31.800130 -106.386764 261 3972ft 10kts
10-Jan-18 18:53 31.800325 -106.390942 210 3972ft 0kts
10-Jan-18 18:54 31.799695 -106.392350 271 3972ft 7kts
10-Jan-18 18:55 31.799670 -106.393381 328 3972ft 0kts
10-Jan-18 18:56 31.799670 -106.393381 328 3972ft 0kts
10-Jan-18 18:57 31.799670 -106.393381 328 3972ft 0kts
10-Jan-18 18:58 31.799670 -106.393381 328 3972ft 0kts
10-Jan-18 18:59 31.799670 -106.393381 328 3972ft 0kts
10-Jan-18 19:00 31.799670 -106.393381 328 3972ft 0kts
10-Jan-18 19:01 31.799670 -106.393381 328 3972ft 0kts
10-Jan-18 19:02 31.799670 -106.393381 328 3972ft 0kts

Navigation Log

Ident Type
Flight plan parsing failed, navigation log unavailable